Time;durP1;ratioP1;P1;durP2;ratioP2;P2;SDS_P1;SDS_P2;PMS_P1;PMS_P2;Temp;Humidity;BMP_temperature;BMP_pressure;BME280_temperature;BME280_humidity;BME280_pressure;Samples;Min_cycle;Max_cycle;Signal;HPM_P1;HPM_P2
2021/07/31 00:01:59;;;;;;;1999.90;999.90;;;;;;;19.42;34.53;100051.69;5039591;27;100745;-72
2021/07/31 00:04:27;;;;;;;1999.90;999.90;;;;;;;19.36;34.67;100046.44;5039683;27;99640;-74
2021/07/31 00:06:55;;;;;;;1999.90;999.90;;;;;;;19.30;34.35;100050.16;5039555;27;97925;-73
2021/07/31 00:09:24;;;;;;;1999.90;999.90;;;;;;;19.23;34.47;100059.34;5039025;27;97811;-74
2021/07/31 00:11:52;;;;;;;1999.90;999.90;;;;;;;19.17;34.72;100055.94;5028936;27;99697;-73
2021/07/31 00:14:20;;;;;;;1999.90;999.90;;;;;;;19.14;34.67;100051.50;5039242;27;98214;-73
2021/07/31 00:16:48;;;;;;;1999.90;999.90;;;;;;;19.06;34.71;100058.91;5038676;27;97884;-73
2021/07/31 00:19:16;;;;;;;1999.90;999.90;;;;;;;18.99;35.11;100068.03;5023098;27;96976;-73
2021/07/31 00:21:43;;;;;;;1999.90;999.90;;;;;;;18.90;35.02;100097.94;5039477;27;99272;-74
2021/07/31 00:24:11;;;;;;;1999.90;999.90;;;;;;;18.77;35.41;100100.03;5036975;27;99345;-74
2021/07/31 00:26:41;;;;;;;1999.90;999.90;;;;;;;18.66;35.37;100101.19;5039197;27;97427;-73
2021/07/31 00:29:09;;;;;;;1999.90;999.90;;;;;;;18.51;35.68;100109.59;5039410;27;99419;-71
2021/07/31 00:31:36;;;;;;;1999.90;999.90;;;;;;;18.38;36.04;100100.00;5038747;27;100303;-73
2021/07/31 00:34:05;;;;;;;1999.90;999.90;;;;;;;18.26;36.03;100111.06;5038626;27;99373;-72
2021/07/31 00:36:32;;;;;;;1999.90;999.90;;;;;;;18.18;36.32;100119.28;5040637;27;96807;-74
2021/07/31 00:39:00;;;;;;;1999.90;999.90;;;;;;;18.06;36.49;100126.75;5023259;27;97271;-72
2021/07/31 00:41:28;;;;;;;1999.90;999.90;;;;;;;17.94;36.40;100128.72;5037788;27;99649;-72
2021/07/31 00:43:57;;;;;;;1999.90;999.90;;;;;;;17.82;36.49;100126.25;5037584;27;102429;-73
2021/07/31 00:46:25;;;;;;;1999.90;999.90;;;;;;;17.74;36.52;100135.38;5021536;27;97095;-73
2021/07/31 00:48:53;;;;;;;1999.90;999.90;;;;;;;17.66;36.53;100130.13;5020244;27;97982;-72
2021/07/31 00:51:22;;;;;;;1999.90;999.90;;;;;;;17.66;36.49;100127.44;5022197;27;100331;-72
2021/07/31 00:53:51;;;;;;;1999.90;999.90;;;;;;;17.63;36.40;100130.19;5006977;27;99480;-73
2021/07/31 00:56:18;;;;;;;1999.90;999.90;;;;;;;17.59;36.55;100130.28;5015520;27;97236;-73
2021/07/31 00:58:47;;;;;;;1999.90;999.90;;;;;;;17.46;36.73;100126.91;5021091;27;96922;-74
2021/07/31 01:01:18;;;;;;;1999.90;999.90;;;;;;;17.36;36.88;100130.66;5035362;27;101165;-76
2021/07/31 01:03:47;;;;;;;1999.90;999.90;;;;;;;17.30;36.96;100135.22;5022693;27;99641;-72
2021/07/31 01:06:15;;;;;;;1999.90;999.90;;;;;;;17.30;36.92;100140.59;5021720;27;97602;-73
2021/07/31 01:08:43;;;;;;;1999.90;999.90;;;;;;;17.25;37.12;100143.38;5020600;27;97529;-72
2021/07/31 01:11:16;;;;;;;1999.90;999.90;;;;;;;17.20;37.11;100144.38;5020366;27;100287;-73
2021/07/31 01:13:45;;;;;;;1999.90;999.90;;;;;;;17.18;37.23;100148.88;5021089;27;101650;-72
2021/07/31 01:16:13;;;;;;;1999.90;999.90;;;;;;;17.11;37.33;100147.22;5021100;27;98086;-72
2021/07/31 01:18:43;;;;;;;1999.90;999.90;;;;;;;17.00;37.48;100158.09;5020118;27;97916;-72
2021/07/31 01:21:35;;;;;;;1999.90;999.90;;;;;;;16.90;37.90;100154.69;5020652;27;98754;-72
2021/07/31 01:24:06;;;;;;;1999.90;999.90;;;;;;;16.88;37.81;100152.91;5021321;27;99092;-73
2021/07/31 01:26:38;;;;;;;1999.90;999.90;;;;;;;16.88;37.84;100147.53;5020965;27;97346;-73
2021/07/31 01:29:07;;;;;;;1999.90;999.90;;;;;;;16.83;38.08;100154.78;5020818;27;97809;-71
2021/07/31 01:31:38;;;;;;;1999.90;999.90;;;;;;;16.78;37.76;100151.28;5037544;27;97907;-73
2021/07/31 01:34:06;;;;;;;1999.90;999.90;;;;;;;16.72;37.94;100151.38;5034949;27;99403;-72
2021/07/31 01:36:36;;;;;;;1999.90;999.90;;;;;;;16.67;38.08;100145.16;5038730;27;97450;-72
2021/07/31 01:39:05;;;;;;;1999.90;999.90;;;;;;;16.64;38.42;100153.22;5039858;27;97347;-73
2021/07/31 01:41:33;;;;;;;1999.90;999.90;;;;;;;16.62;38.16;100152.34;5038345;27;97924;-73
2021/07/31 01:44:01;;;;;;;1999.90;999.90;;;;;;;16.58;38.26;100145.28;5021436;27;98943;-73
2021/07/31 01:46:30;;;;;;;1999.90;999.90;;;;;;;16.61;38.14;100154.19;5038117;27;98220;-73
2021/07/31 01:48:58;;;;;;;1999.90;999.90;;;;;;;16.59;37.96;100147.03;5020511;27;96818;-73
2021/07/31 01:51:29;;;;;;;1999.90;999.90;;;;;;;16.58;38.17;100145.28;5019788;27;99352;-72
2021/07/31 01:53:59;;;;;;;1999.90;999.90;;;;;;;16.55;38.08;100143.50;5038173;27;98685;-73
2021/07/31 01:56:28;;;;;;;1999.90;999.90;;;;;;;16.53;37.98;100148.00;5021501;27;97735;-73
2021/07/31 01:58:57;;;;;;;1999.90;999.90;;;;;;;16.54;37.91;100148.91;5020111;27;97436;-72
2021/07/31 02:01:25;;;;;;;1999.90;999.90;;;;;;;16.58;38.03;100147.97;5012131;27;99614;-73
2021/07/31 02:03:55;;;;;;;1999.90;999.90;;;;;;;16.58;37.91;100139.91;5019543;27;101732;-73
2021/07/31 02:06:43;;;;;;;1999.90;999.90;;;;;;;16.54;37.93;100136.34;5030697;27;98080;-73
2021/07/31 02:09:12;;;;;;;1999.90;999.90;;;;;;;16.53;37.96;100145.31;5036673;27;97423;-72
2021/07/31 02:11:40;;;;;;;1999.90;999.90;;;;;;;16.51;37.71;100143.53;5018158;27;99186;-72
2021/07/31 02:14:08;;;;;;;1999.90;999.90;;;;;;;16.47;38.04;100144.53;5019564;27;101681;-73
2021/07/31 02:16:42;;;;;;;1999.90;999.90;;;;;;;16.43;38.25;100145.47;5037150;27;97150;-73
2021/07/31 02:19:16;;;;;;;1999.90;999.90;;;;;;;16.39;38.36;100147.31;5020502;27;98039;-73
2021/07/31 02:21:52;;;;;;;1999.90;999.90;;;;;;;16.32;38.68;100155.44;5018318;27;99669;-73
2021/07/31 02:24:40;;;;;;;1999.90;999.90;;;;;;;16.28;38.71;100153.69;5038266;27;97602;-72
2021/07/31 02:27:40;;;;;;;1999.90;999.90;;;;;;;16.23;38.45;100148.41;5035764;27;97391;-73
2021/07/31 02:30:11;;;;;;;1999.90;999.90;;;;;;;16.20;38.94;100148.41;5036387;27;97829;-73
2021/07/31 02:32:40;;;;;;;1999.90;999.90;;;;;;;16.13;39.03;100152.09;5038307;27;99430;-73
2021/07/31 02:35:11;;;;;;;1999.90;999.90;;;;;;;16.10;38.97;100142.25;5035817;27;97864;-73
2021/07/31 02:37:58;;;;;;;1999.90;999.90;;;;;;;16.08;38.91;100151.25;5036273;27;97444;-73
2021/07/31 02:40:28;;;;;;;1999.90;999.90;;;;;;;16.07;39.28;100145.00;5020438;27;98023;-73
2021/07/31 02:42:56;;;;;;;1999.90;999.90;;;;;;;16.05;39.25;100141.44;5019602;27;99168;-73
2021/07/31 02:45:24;;;;;;;1999.90;999.90;;;;;;;16.05;39.11;100149.50;5019430;27;99299;-73
2021/07/31 02:48:01;;;;;;;1999.90;999.90;;;;;;;15.99;39.42;100145.97;5037484;27;97059;-73
2021/07/31 02:50:30;;;;;;;1999.90;999.90;;;;;;;15.99;39.20;100146.88;5036899;27;97982;-72
2021/07/31 02:53:07;;;;;;;1999.90;999.90;;;;;;;15.93;39.35;100141.56;5035944;27;98002;-72
2021/07/31 02:55:36;;;;;;;1999.90;999.90;;;;;;;15.89;39.64;100150.53;5035976;27;99950;-72
2021/07/31 02:58:04;;;;;;;1999.90;999.90;;;;;;;15.87;39.41;100148.75;5038823;27;98223;-73
2021/07/31 03:00:32;;;;;;;1999.90;999.90;;;;;;;15.86;39.67;100150.56;5036296;27;97813;-72
2021/07/31 03:03:01;;;;;;;1999.90;999.90;;;;;;;15.87;39.54;100162.19;5012801;27;100470;-72
2021/07/31 03:05:29;;;;;;;1999.90;999.90;;;;;;;15.83;39.90;100149.72;5036262;27;99189;-73
2021/07/31 03:08:05;;;;;;;1999.90;999.90;;;;;;;15.81;39.89;100151.53;5019346;27;97462;-73
2021/07/31 03:10:33;;;;;;;1999.90;999.90;;;;;;;15.83;39.81;100144.34;5036643;27;97853;-73
2021/07/31 03:13:04;;;;;;;1999.90;999.90;;;;;;;15.87;39.73;100156.81;5022855;27;99169;-73
2021/07/31 03:15:32;;;;;;;1999.90;999.90;;;;;;;15.89;39.77;100150.53;5022968;27;98424;-73
2021/07/31 03:18:00;;;;;;;1999.90;999.90;;;;;;;15.97;40.10;100142.41;5041536;27;97000;-73
2021/07/31 03:20:28;;;;;;;1999.90;999.90;;;;;;;16.04;39.84;100134.31;5038921;27;97460;-72
2021/07/31 03:23:00;;;;;;;1999.90;999.90;;;;;;;16.09;39.97;100147.66;5040086;27;97860;-72
2021/07/31 03:25:28;;;;;;;1999.90;999.90;;;;;;;16.14;39.94;100134.19;5022818;27;100833;-73
2021/07/31 03:27:57;;;;;;;1999.90;999.90;;;;;;;16.17;39.79;100140.41;5040874;27;97980;-73
2021/07/31 03:30:43;;;;;;;1999.90;999.90;;;;;;;16.20;39.72;100143.06;5018346;27;97738;-74
2021/07/31 03:33:14;;;;;;;1999.90;999.90;;;;;;;16.16;39.69;100135.06;5018635;27;97771;-73
2021/07/31 03:35:43;;;;;;;1999.90;999.90;;;;;;;16.12;39.91;100136.91;5032134;27;99687;-74
2021/07/31 03:38:29;;;;;;;1999.90;999.90;;;;;;;16.08;39.81;100136.06;5038931;27;97800;-72
2021/07/31 03:40:58;;;;;;;1999.90;999.90;;;;;;;16.08;40.15;100129.78;5010459;27;97629;-71
2021/07/31 03:43:31;;;;;;;1999.90;999.90;;;;;;;16.06;39.97;100137.88;5020609;27;98311;-72
2021/07/31 03:46:01;;;;;;;1999.90;999.90;;;;;;;16.05;40.31;100133.38;5037920;27;98773;-73
2021/07/31 03:48:30;;;;;;;1999.90;999.90;;;;;;;16.04;40.26;100131.63;5039535;27;98181;-73
2021/07/31 03:50:58;;;;;;;1999.90;999.90;;;;;;;16.01;40.18;100137.00;5031473;27;97492;-73
2021/07/31 03:53:33;;;;;;;1999.90;999.90;;;;;;;15.99;40.22;100138.81;5023916;27;97350;-73
2021/07/31 03:56:03;;;;;;;1999.90;999.90;;;;;;;15.92;40.20;100133.53;5039743;27;97859;-73
2021/07/31 03:58:34;;;;;;;1999.90;999.90;;;;;;;15.89;40.51;100144.25;5023205;27;97184;-72
2021/07/31 04:01:04;;;;;;;1999.90;999.90;;;;;;;15.83;40.35;100147.91;5018689;27;98165;-72
2021/07/31 04:03:32;;;;;;;1999.90;999.90;;;;;;;15.80;40.23;100147.94;5040472;27;98266;-73
2021/07/31 04:06:00;;;;;;;1999.90;999.90;;;;;;;15.77;40.21;100150.66;5027101;27;97844;-73
2021/07/31 04:08:43;;;;;;;1999.90;999.90;;;;;;;15.73;40.45;100151.59;5039064;27;97279;-73
2021/07/31 04:11:14;;;;;;;1999.90;999.90;;;;;;;15.73;40.63;100154.28;5040688;27;97892;-73
2021/07/31 04:14:04;;;;;;;1999.90;999.90;;;;;;;15.76;40.59;100156.03;5039533;27;98935;-74
2021/07/31 04:16:40;;;;;;;1999.90;999.90;;;;;;;15.77;40.85;100156.03;5039795;27;99759;-73
2021/07/31 04:19:08;;;;;;;1999.90;999.90;;;;;;;15.77;40.40;100164.09;5023288;27;96814;-72
2021/07/31 04:21:39;;;;;;;1999.90;999.90;;;;;;;15.75;40.18;100167.69;5021553;27;98012;-72
2021/07/31 04:24:10;;;;;;;1999.90;999.90;;;;;;;15.73;40.10;100165.00;5035536;27;99213;-73
2021/07/31 04:26:38;;;;;;;1999.90;999.90;;;;;;;15.70;40.12;100165.03;5040257;27;97734;-72
2021/07/31 04:29:06;;;;;;;1999.90;999.90;;;;;;;15.68;40.33;100165.97;5039797;27;97241;-73
2021/07/31 04:31:34;;;;;;;1999.90;999.90;;;;;;;15.67;39.83;100173.09;5040407;27;97238;-73
2021/07/31 04:34:03;;;;;;;1999.90;999.90;;;;;;;15.64;40.00;100173.16;5038867;27;100983;-73
2021/07/31 04:36:32;;;;;;;1999.90;999.90;;;;;;;15.63;40.20;100171.34;5039762;27;97114;-73
2021/07/31 04:39:00;;;;;;;1999.90;999.90;;;;;;;15.58;39.91;100165.16;5038838;27;97173;-73
2021/07/31 04:41:28;;;;;;;1999.90;999.90;;;;;;;15.53;40.20;100164.31;5038765;27;98093;-73
2021/07/31 04:43:56;;;;;;;1999.90;999.90;;;;;;;15.53;40.02;100161.63;5040000;27;97724;-72
2021/07/31 04:46:24;;;;;;;1999.90;999.90;;;;;;;15.51;39.80;100160.75;5021939;27;100281;-73
2021/07/31 04:48:51;;;;;;;1999.90;999.90;;;;;;;15.49;39.79;100162.56;5037963;27;97186;-73
2021/07/31 04:51:21;;;;;;;1999.90;999.90;;;;;;;15.48;39.96;100159.88;5040282;27;97923;-73
2021/07/31 04:53:48;;;;;;;1999.90;999.90;;;;;;;15.50;39.99;100166.13;5038017;27;98073;-73
2021/07/31 04:56:17;;;;;;;1999.90;999.90;;;;;;;15.53;40.50;100168.78;5022153;27;100459;-73
2021/07/31 04:58:45;;;;;;;1999.90;999.90;;;;;;;15.52;40.37;100165.19;5020631;27;97402;-73
2021/07/31 05:01:12;;;;;;;1999.90;999.90;;;;;;;15.53;40.48;100167.00;5021083;27;97097;-73
2021/07/31 05:03:40;;;;;;;1999.90;999.90;;;;;;;15.58;40.56;100167.84;5040248;27;97304;-73
2021/07/31 05:06:08;;;;;;;1999.90;999.90;;;;;;;15.61;40.84;100157.06;5021339;27;99395;-73
2021/07/31 05:08:37;;;;;;;1999.90;999.90;;;;;;;15.66;40.63;100157.03;5039469;27;98081;-72
2021/07/31 05:11:06;;;;;;;1999.90;999.90;;;;;;;15.71;40.90;100161.44;5021934;27;97407;-73
2021/07/31 05:13:36;;;;;;;1999.90;999.90;;;;;;;15.76;40.68;100156.03;5020291;27;98373;-73
2021/07/31 05:16:04;;;;;;;1999.90;999.90;;;;;;;15.79;40.84;100156.91;5037927;27;98327;-72
2021/07/31 05:18:32;;;;;;;1999.90;999.90;;;;;;;15.86;40.30;100165.78;5037761;27;97505;-72
2021/07/31 05:21:00;;;;;;;1999.90;999.90;;;;;;;15.91;40.50;100163.94;5039047;27;97740;-73
2021/07/31 05:23:28;;;;;;;1999.90;999.90;;;;;;;15.93;39.84;100157.66;5037510;27;97588;-73
2021/07/31 05:25:57;;;;;;;1999.90;999.90;;;;;;;15.97;39.43;100161.19;5038447;27;97675;-73
2021/07/31 05:28:25;;;;;;;1999.90;999.90;;;;;;;15.93;39.89;100156.75;5038298;27;97371;-72
2021/07/31 05:30:52;;;;;;;1999.90;999.90;;;;;;;15.86;39.63;100160.41;5039981;27;97278;-73
2021/07/31 05:33:20;;;;;;;1999.90;999.90;;;;;;;15.85;39.41;100159.50;5037177;27;99677;-73
2021/07/31 05:35:48;;;;;;;1999.90;999.90;;;;;;;15.82;39.12;100156.88;5037846;27;99643;-73
2021/07/31 05:38:16;;;;;;;1999.90;999.90;;;;;;;15.85;39.12;100162.19;5039158;27;97564;-73
2021/07/31 05:40:44;;;;;;;1999.90;999.90;;;;;;;15.78;38.96;100162.25;5020887;27;97257;-73
2021/07/31 05:43:14;;;;;;;1999.90;999.90;;;;;;;15.75;38.81;100165.88;5037805;27;98758;-73
2021/07/31 05:45:41;;;;;;;1999.90;999.90;;;;;;;15.70;38.68;100162.34;5033652;27;99208;-73
2021/07/31 05:48:11;;;;;;;1999.90;999.90;;;;;;;15.64;38.77;100162.41;5038768;27;97810;-71
2021/07/31 05:50:39;;;;;;;1999.90;999.90;;;;;;;15.60;38.48;100152.63;5038877;27;98477;-72
2021/07/31 05:53:06;;;;;;;1999.90;999.90;;;;;;;15.61;38.62;100156.19;5038599;27;100487;-73
2021/07/31 05:55:34;;;;;;;1999.90;999.90;;;;;;;15.63;38.61;100152.56;5037375;27;101015;-73
2021/07/31 05:58:02;;;;;;;1999.90;999.90;;;;;;;15.63;38.16;100157.06;5020728;27;97345;-74
2021/07/31 06:00:31;;;;;;;1999.90;999.90;;;;;;;15.60;38.52;100152.63;5038217;27;97265;-73
2021/07/31 06:03:00;;;;;;;1999.90;999.90;;;;;;;15.62;38.47;100156.19;5020724;27;101299;-73
2021/07/31 06:05:28;;;;;;;1999.90;999.90;;;;;;;15.62;38.46;100153.50;5039003;27;97595;-73
2021/07/31 06:07:56;;;;;;;1999.90;999.90;;;;;;;15.63;38.00;100157.94;5038795;27;97133;-72
2021/07/31 06:10:24;;;;;;;1999.90;999.90;;;;;;;15.65;38.10;100145.41;5038497;27;98258;-72
2021/07/31 06:12:52;;;;;;;1999.90;999.90;;;;;;;15.68;38.39;100150.75;5034677;27;99180;-73
2021/07/31 06:15:19;;;;;;;1999.90;999.90;;;;;;;15.70;38.05;100146.25;5038706;27;98559;-73
2021/07/31 06:17:49;;;;;;;1999.90;999.90;;;;;;;15.71;37.82;100156.09;5036990;27;97258;-72
2021/07/31 06:20:17;;;;;;;1999.90;999.90;;;;;;;15.71;37.61;100156.09;5037409;27;97633;-73
2021/07/31 06:22:45;;;;;;;1999.90;999.90;;;;;;;15.74;37.38;100141.78;5037545;27;98978;-73
2021/07/31 06:25:12;;;;;;;1999.90;999.90;;;;;;;15.75;37.37;100147.13;5039030;27;97560;-74
2021/07/31 06:27:41;;;;;;;1999.90;999.90;;;;;;;15.77;36.72;100144.41;5019929;27;96952;-73
2021/07/31 06:30:09;;;;;;;1999.90;999.90;;;;;;;15.78;36.65;100152.44;5038726;27;98455;-73
2021/07/31 06:32:37;;;;;;;1999.90;999.90;;;;;;;15.81;36.71;100149.72;5020901;27;99333;-72
2021/07/31 06:35:07;;;;;;;1999.90;999.90;;;;;;;15.85;36.65;100146.09;5037588;27;98827;-73
2021/07/31 06:37:35;;;;;;;1999.90;999.90;;;;;;;15.90;36.56;100136.19;5036709;27;97410;-73
2021/07/31 06:40:04;;;;;;;1999.90;999.90;;;;;;;15.92;36.59;100139.75;5036176;27;97372;-73
2021/07/31 06:42:31;;;;;;;1999.90;999.90;;;;;;;15.94;36.34;100146.00;5038691;27;98888;-74
2021/07/31 06:44:59;;;;;;;1999.90;999.90;;;;;;;15.96;36.23;100149.56;5044124;27;98773;-73
2021/07/31 06:47:27;;;;;;;1999.90;999.90;;;;;;;15.98;36.13;100142.38;5038820;27;97203;-72
2021/07/31 06:49:55;;;;;;;1999.90;999.90;;;;;;;16.01;36.17;100145.06;5037375;27;97206;-72
2021/07/31 06:52:24;;;;;;;1999.90;999.90;;;;;;;16.04;35.95;100138.78;5036069;27;99571;-73
2021/07/31 06:54:52;;;;;;;1999.90;999.90;;;;;;;16.08;35.89;100141.44;5036838;27;99209;-73
2021/07/31 06:57:19;;;;;;;1999.90;999.90;;;;;;;16.13;36.09;100138.66;5037510;27;97270;-72
2021/07/31 06:59:47;;;;;;;1999.90;999.90;;;;;;;16.18;35.91;100135.94;5038500;27;96782;-73
2021/07/31 07:02:15;;;;;;;1999.90;999.90;;;;;;;16.21;35.62;100142.16;5019192;27;100515;-73
2021/07/31 07:04:42;;;;;;;1999.90;999.90;;;;;;;16.25;35.19;100151.06;5035659;27;98132;-73
2021/07/31 07:07:10;;;;;;;1999.90;999.90;;;;;;;16.26;35.43;100142.09;5036601;27;97719;-72
2021/07/31 07:09:39;;;;;;;1999.90;999.90;;;;;;;16.29;35.24;100137.56;5037687;27;97302;-72
2021/07/31 07:12:08;;;;;;;1999.90;999.90;;;;;;;16.31;35.13;100143.81;5036553;27;97960;-72
2021/07/31 07:14:36;;;;;;;1999.90;999.90;;;;;;;16.33;35.17;100146.47;5036909;27;100297;-73
2021/07/31 07:17:08;;;;;;;1999.90;999.90;;;;;;;16.35;35.41;100133.91;5036292;27;97565;-72
2021/07/31 07:19:36;;;;;;;1999.90;999.90;;;;;;;16.37;35.18;100150.91;5036630;27;96893;-74
2021/07/31 07:22:04;;;;;;;1999.90;999.90;;;;;;;16.38;35.09;100139.28;5035959;27;100476;-73
2021/07/31 07:24:34;;;;;;;1999.90;999.90;;;;;;;16.39;34.77;100157.16;5037883;27;98058;-74
2021/07/31 07:27:04;;;;;;;1999.90;999.90;;;;;;;16.39;34.42;100133.88;5019254;27;96931;-73
2021/07/31 07:29:32;;;;;;;1999.90;999.90;;;;;;;16.41;34.74;100123.09;5037498;27;97290;-73
2021/07/31 07:32:00;;;;;;;1999.90;999.90;;;;;;;16.43;35.01;100122.19;5037636;27;97854;-71
2021/07/31 07:34:27;;;;;;;1999.90;999.90;;;;;;;16.50;34.78;100131.03;5036705;27;99170;-72
2021/07/31 07:36:55;;;;;;;1999.90;999.90;;;;;;;16.51;34.75;100136.38;5037615;27;97684;-72
2021/07/31 07:39:23;;;;;;;1999.90;999.90;;;;;;;16.54;34.45;100125.59;5037347;27;96845;-73
2021/07/31 07:41:51;;;;;;;1999.90;999.90;;;;;;;16.58;34.70;100124.66;5036171;27;98357;-73
2021/07/31 07:44:20;;;;;;;1999.90;999.90;;;;;;;16.61;34.68;100146.13;5038235;27;97614;-72
2021/07/31 07:46:47;;;;;;;1999.90;999.90;;;;;;;16.60;34.53;100130.88;5037544;27;97478;-73
2021/07/31 07:49:15;;;;;;;1999.90;999.90;;;;;;;16.59;34.80;100147.94;5037656;27;97163;-73
2021/07/31 07:51:43;;;;;;;1999.90;999.90;;;;;;;16.57;34.50;100135.41;5035073;27;99463;-74
2021/07/31 07:54:11;;;;;;;1999.90;999.90;;;;;;;16.56;34.79;100139.91;5036152;27;100494;-74
2021/07/31 07:56:38;;;;;;;1999.90;999.90;;;;;;;16.56;34.80;100139.03;5031269;27;97724;-74
2021/07/31 07:59:06;;;;;;;1999.90;999.90;;;;;;;16.54;34.79;100135.47;5040098;27;97035;-74
2021/07/31 08:01:35;;;;;;;1999.90;999.90;;;;;;;16.53;34.73;100147.09;5038727;27;102237;-73
2021/07/31 08:04:04;;;;;;;1999.90;999.90;;;;;;;16.52;34.50;100138.19;5040136;27;97882;-73
2021/07/31 08:06:31;;;;;;;1999.90;999.90;;;;;;;16.53;34.31;100139.03;5038836;27;97612;-73
2021/07/31 08:08:59;;;;;;;1999.90;999.90;;;;;;;16.51;33.94;100163.25;5040038;27;97565;-74
2021/07/31 08:11:27;;;;;;;1999.90;999.90;;;;;;;16.51;33.88;100148.91;5039393;27;100092;-73
2021/07/31 08:13:55;;;;;;;1999.90;999.90;;;;;;;16.52;33.88;100139.97;5040266;27;97664;-73
2021/07/31 08:16:23;;;;;;;1999.90;999.90;;;;;;;16.54;33.66;100143.53;5040248;27;97286;-74
2021/07/31 08:18:52;;;;;;;1999.90;999.90;;;;;;;16.53;33.42;100179.34;5036340;27;98201;-72
2021/07/31 08:21:20;;;;;;;1999.90;999.90;;;;;;;16.52;33.63;100148.94;5039250;27;98167;-72
2021/07/31 08:23:48;;;;;;;1999.90;999.90;;;;;;;16.55;33.31;100153.34;5039969;27;97898;-72
2021/07/31 08:26:16;;;;;;;1999.90;999.90;;;;;;;16.56;33.54;100165.88;5039598;27;97487;-74
2021/07/31 08:28:44;;;;;;;1999.90;999.90;;;;;;;16.56;33.27;100158.69;5039337;27;97332;-74
2021/07/31 08:31:12;;;;;;;1999.90;999.90;;;;;;;16.56;33.28;100198.13;5041106;27;97775;-72
2021/07/31 08:33:40;;;;;;;1999.90;999.90;;;;;;;16.54;33.13;100173.06;5037986;27;97943;-74
2021/07/31 08:36:10;;;;;;;1999.90;999.90;;;;;;;16.52;33.03;100170.41;5023252;27;97294;-73
2021/07/31 08:38:37;;;;;;;1999.90;999.90;;;;;;;16.52;33.07;100162.34;5040697;27;97327;-73
2021/07/31 08:41:05;;;;;;;1999.90;999.90;;;;;;;16.52;32.95;100159.66;5038514;27;99294;-74
2021/07/31 08:43:34;;;;;;;1999.90;999.90;;;;;;;16.54;33.25;100167.69;5039353;27;98698;-73
2021/07/31 08:46:07;;;;;;;1999.90;999.90;;;;;;;16.55;33.36;100180.22;5020121;27;98403;-74
2021/07/31 08:48:35;;;;;;;1999.90;999.90;;;;;;;16.58;33.52;100185.56;5039486;27;97754;-73
2021/07/31 08:51:03;;;;;;;1999.90;999.90;;;;;;;16.58;33.28;100175.69;5039631;27;97551;-74
2021/07/31 08:53:32;;;;;;;1999.90;999.90;;;;;;;16.61;33.30;100188.19;5039374;27;97655;-74
2021/07/31 08:56:02;;;;;;;1999.90;999.90;;;;;;;16.60;33.28;100183.72;5022342;27;97513;-74
2021/07/31 08:58:29;;;;;;;1999.90;999.90;;;;;;;16.59;33.24;100193.59;5039039;27;97530;-74
2021/07/31 09:00:58;;;;;;;1999.90;999.90;;;;;;;16.57;33.36;100183.75;5037295;27;100580;-74
2021/07/31 09:03:26;;;;;;;1999.90;999.90;;;;;;;16.54;33.20;100187.38;5021649;27;99269;-74
2021/07/31 09:05:53;;;;;;;1999.90;999.90;;;;;;;16.51;33.53;100183.84;5038265;27;97589;-72
2021/07/31 09:08:21;;;;;;;1999.90;999.90;;;;;;;16.48;33.55;100183.88;5020617;27;97373;-74
2021/07/31 09:10:51;;;;;;;1999.90;999.90;;;;;;;16.49;33.12;100212.53;5039000;27;97734;-74
2021/07/31 09:13:20;;;;;;;1999.90;999.90;;;;;;;16.46;33.51;100191.06;5040373;27;98111;-74
2021/07/31 09:15:50;;;;;;;1999.90;999.90;;;;;;;16.47;33.23;100190.19;5021770;27;97836;-74
2021/07/31 09:18:23;;;;;;;1999.90;999.90;;;;;;;16.45;33.11;100202.72;5017990;27;97201;-72
2021/07/31 09:21:03;;;;;;;1999.90;999.90;;;;;;;16.43;33.21;100178.59;5039157;27;99036;-74
2021/07/31 09:23:45;;;;;;;1999.90;999.90;;;;;;;16.42;33.15;100210.81;5038863;27;97728;-73
2021/07/31 09:26:16;;;;;;;1999.90;999.90;;;;;;;16.44;33.27;100187.50;5039625;27;98175;-74
2021/07/31 09:28:45;;;;;;;1999.90;999.90;;;;;;;16.45;33.31;100176.75;5038992;27;97686;-74
2021/07/31 09:31:16;;;;;;;1999.90;999.90;;;;;;;16.48;33.34;100187.47;5037745;27;100004;-74
2021/07/31 09:33:46;;;;;;;1999.90;999.90;;;;;;;16.49;33.15;100217.91;5036236;27;99088;-74
2021/07/31 09:36:15;;;;;;;1999.90;999.90;;;;;;;16.49;33.45;100175.81;5038935;27;97982;-74
2021/07/31 09:38:44;;;;;;;1999.90;999.90;;;;;;;16.50;33.20;100190.13;5040050;27;97319;-74
2021/07/31 09:41:32;;;;;;;1999.90;999.90;;;;;;;16.50;33.42;100179.38;5038381;27;99043;-74
2021/07/31 09:44:02;;;;;;;1999.90;999.90;;;;;;;16.54;32.98;100202.63;5037805;27;99282;-74
2021/07/31 09:46:35;;;;;;;1999.90;999.90;;;;;;;16.57;32.96;100187.34;5038193;27;96905;-74
2021/07/31 09:49:04;;;;;;;1999.90;999.90;;;;;;;16.59;32.91;100174.78;5020250;27;97149;-74
2021/07/31 09:51:34;;;;;;;1999.90;999.90;;;;;;;16.64;32.75;100194.41;5037468;27;99613;-72
2021/07/31 09:54:03;;;;;;;1999.90;999.90;;;;;;;16.68;33.12;100177.34;5037328;27;98491;-73
2021/07/31 09:56:32;;;;;;;1999.90;999.90;;;;;;;16.72;33.20;100178.22;5036908;27;96940;-73
2021/07/31 09:59:01;;;;;;;1999.90;999.90;;;;;;;16.74;32.88;100177.28;5037732;27;97357;-74
2021/07/31 10:01:29;;;;;;;1999.90;999.90;;;;;;;16.76;32.86;100193.41;5019937;27;97831;-74
2021/07/31 10:03:57;;;;;;;1999.90;999.90;;;;;;;16.77;32.72;100195.19;5020171;27;97780;-74
2021/07/31 10:06:27;;;;;;;1999.90;999.90;;;;;;;16.77;32.90;100177.25;5037368;27;97203;-74
2021/07/31 10:08:55;;;;;;;1999.90;999.90;;;;;;;16.79;32.56;100190.66;5038452;27;97398;-73
2021/07/31 10:11:23;;;;;;;1999.90;999.90;;;;;;;16.81;32.59;100179.00;5037156;27;98081;-74
2021/07/31 10:13:53;;;;;;;1999.90;999.90;;;;;;;16.81;32.50;100168.25;5037791;27;100705;-73
2021/07/31 10:16:21;;;;;;;1999.90;999.90;;;;;;;16.84;32.56;100181.63;5039488;27;97053;-74
2021/07/31 10:18:56;;;;;;;1999.90;999.90;;;;;;;16.87;32.09;100172.66;5037538;27;97758;-74
2021/07/31 10:21:25;;;;;;;1999.90;999.90;;;;;;;16.90;31.89;100177.97;5034812;27;97665;-74
2021/07/31 10:23:58;;;;;;;1999.90;999.90;;;;;;;16.91;31.61;100207.50;5037220;27;101365;-73
2021/07/31 10:26:26;;;;;;;1999.90;999.90;;;;;;;16.92;31.55;100176.16;5037218;27;97366;-73
2021/07/31 10:29:35;;;;;;;1999.90;999.90;;;;;;;16.96;31.80;100167.16;5019885;27;97115;-73
2021/07/31 10:32:35;;;;;;;1999.90;999.90;;;;;;;16.99;31.48;100199.34;5039118;27;97957;-74
2021/07/31 10:35:04;;;;;;;1999.90;999.90;;;;;;;17.03;31.25;100160.75;5020776;27;97901;-73
2021/07/31 10:37:42;;;;;;;1999.90;999.90;;;;;;;17.08;31.33;100172.31;5036817;27;97731;-73
2021/07/31 10:40:11;;;;;;;1999.90;999.90;;;;;;;17.12;31.44;100179.44;5038486;27;98087;-75
2021/07/31 10:43:03;;;;;;;1999.90;999.90;;;;;;;17.17;31.10;100176.66;5036607;27;98693;-74
2021/07/31 10:45:34;;;;;;;1999.90;999.90;;;;;;;17.20;31.01;100156.00;5025616;27;97385;-73
2021/07/31 10:48:02;;;;;;;1999.90;999.90;;;;;;;17.23;31.12;100166.72;5018983;27;97779;-74
2021/07/31 10:50:37;;;;;;;1999.90;999.90;;;;;;;17.24;31.00;100172.97;5038650;27;97928;-74
2021/07/31 10:53:06;;;;;;;1999.90;999.90;;;;;;;17.25;31.09;100170.28;5020593;27;100011;-74
2021/07/31 10:56:00;;;;;;;1999.90;999.90;;;;;;;17.27;30.77;100181.00;5037083;27;99660;-73
2021/07/31 10:58:30;;;;;;;1999.90;999.90;;;;;;;17.29;31.15;100166.59;5038092;27;97187;-74
2021/07/31 11:01:21;;;;;;;1999.90;999.90;;;;;;;17.34;31.25;100163.84;5020054;27;97158;-73